UAL32 KLAX-RJAA
Flight info
| Callsign | UAL32 |
|---|---|
| Flight time | N/A |
| Altitude | 36000 |
| Route | SUMMR2 MCKEY DCT LIBBO DCT BRINY DCT BOARS DCT BOXER DCT FULMR DCT FASEL DCT 50N140W 52N150W/N0467F380 53N160W DCT RADIC DCT EXAMY DCT AAMYY DCT ASPIN/N0483F400 DCT AKISU DCT AGEDI ADGOR R591 ADNAP Y807 NOGIX Y802 OLDIV Y809 SUPOK |
| Aircraft | B772/H-SDE2E3FGHIJ5LORVWXY/LB1D1 |
Departure
| Time | 2026-04-22 03:56 |
|---|---|
| Airport | Los Angeles International Airport (KLAX) |
Arrival
| Time | N/A |
|---|---|
| Airport | Narita International Airport (RJAA) |
| Time | Latitude | Longitude | Altitude | Speed | Heading |
|---|---|---|---|---|---|
| 2026-04-22 03:26 | 33.94177 | -118.41094 | 97 ft | 0 kts | 82° |
| 2026-04-22 03:27 | 33.94178 | -118.41087 | 97 ft | 0 kts | 83° |
| 2026-04-22 03:39 | 33.94178 | -118.41090 | 97 ft | 2 kts | 83° |
| 2026-04-22 03:40 | 33.94175 | -118.41121 | 96 ft | 4 kts | 83° |
| 2026-04-22 03:40 | 33.94171 | -118.41154 | 95 ft | 4 kts | 83° |
| 2026-04-22 03:40 | 33.94167 | -118.41184 | 98 ft | 4 kts | 58° |
| 2026-04-22 03:40 | 33.94149 | -118.41201 | 96 ft | 4 kts | 4° |
| 2026-04-22 03:41 | 33.94128 | -118.41200 | 96 ft | 4 kts | 353° |
| 2026-04-22 03:41 | 33.94107 | -118.41196 | 96 ft | 0 kts | 353° |
| 2026-04-22 03:44 | 33.94115 | -118.41198 | 96 ft | 2 kts | 353° |
| 2026-04-22 03:45 | 33.94146 | -118.41202 | 96 ft | 7 kts | 353° |
| 2026-04-22 03:45 | 33.94213 | -118.41213 | 99 ft | 12 kts | 352° |
| 2026-04-22 03:45 | 33.94311 | -118.41227 | 98 ft | 16 kts | 353° |
| 2026-04-22 03:45 | 33.94421 | -118.41243 | 98 ft | 15 kts | 353° |
| 2026-04-22 03:46 | 33.94522 | -118.41258 | 98 ft | 15 kts | 353° |
| 2026-04-22 03:46 | 33.94622 | -118.41273 | 99 ft | 15 kts | 353° |
| 2026-04-22 03:46 | 33.94723 | -118.41288 | 98 ft | 15 kts | 353° |
| 2026-04-22 03:46 | 33.94801 | -118.41235 | 101 ft | 15 kts | 82° |
| 2026-04-22 03:47 | 33.94811 | -118.41114 | 99 ft | 15 kts | 83° |
| 2026-04-22 03:47 | 33.94822 | -118.40992 | 100 ft | 15 kts | 83° |
| 2026-04-22 03:47 | 33.94834 | -118.40871 | 100 ft | 15 kts | 83° |
| 2026-04-22 03:47 | 33.94847 | -118.40749 | 101 ft | 15 kts | 83° |
| 2026-04-22 03:48 | 33.94860 | -118.40629 | 99 ft | 15 kts | 83° |
| 2026-04-22 03:48 | 33.94872 | -118.40508 | 99 ft | 15 kts | 83° |
| 2026-04-22 03:48 | 33.94885 | -118.40386 | 98 ft | 15 kts | 83° |
| 2026-04-22 03:48 | 33.94898 | -118.40265 | 101 ft | 15 kts | 82° |
| 2026-04-22 03:49 | 33.94911 | -118.40144 | 98 ft | 15 kts | 82° |
| 2026-04-22 03:49 | 33.94922 | -118.40023 | 97 ft | 15 kts | 85° |
| 2026-04-22 03:49 | 33.94938 | -118.39946 | 98 ft | 7 kts | 53° |
| 2026-04-22 03:49 | 33.94946 | -118.39937 | 100 ft | 0 kts | 46° |
| 2026-04-22 03:55 | 33.94949 | -118.39933 | 99 ft | 4 kts | 43° |
| 2026-04-22 03:55 | 33.95019 | -118.39920 | 98 ft | 10 kts | 334° |
| 2026-04-22 03:55 | 33.95032 | -118.40054 | 99 ft | 25 kts | 263° |
| 2026-04-22 03:55 | 33.94984 | -118.40518 | 101 ft | 98 kts | 263° |
| 2026-04-22 03:56 | 33.94867 | -118.41669 | 127 ft | 171 kts | 263° |
| 2026-04-22 03:56 | 33.94778 | -118.42653 | 508 ft | 185 kts | 264° |
| 2026-04-22 03:56 | 33.94628 | -118.44281 | 1294 ft | 202 kts | 263° |
| 2026-04-22 03:56 | 33.94448 | -118.46008 | 2049 ft | 216 kts | 262° |
| 2026-04-22 03:57 | 33.94287 | -118.47888 | 2376 ft | 234 kts | 267° |
| 2026-04-22 03:57 | 33.94212 | -118.50625 | 2948 ft | 253 kts | 269° |
| 2026-04-22 03:57 | 33.94163 | -118.52068 | 3369 ft | 258 kts | 265° |
| 2026-04-22 03:57 | 33.93994 | -118.54245 | 4101 ft | 262 kts | 264° |
| 2026-04-22 03:58 | 33.93807 | -118.56435 | 4854 ft | 264 kts | 264° |
| 2026-04-22 03:58 | 33.93625 | -118.58643 | 5586 ft | 267 kts | 264° |
| 2026-04-22 03:58 | 33.93445 | -118.60885 | 6307 ft | 270 kts | 264° |
| 2026-04-22 03:58 | 33.93265 | -118.63148 | 7016 ft | 273 kts | 264° |
| 2026-04-22 03:59 | 33.93085 | -118.65433 | 7706 ft | 276 kts | 264° |
| 2026-04-22 03:59 | 33.92906 | -118.67744 | 8388 ft | 279 kts | 264° |
| 2026-04-22 03:59 | 33.92727 | -118.70044 | 9050 ft | 281 kts | 264° |
| 2026-04-22 03:59 | 33.92544 | -118.72403 | 9711 ft | 284 kts | 264° |
| 2026-04-22 04:00 | 33.92359 | -118.74790 | 10258 ft | 293 kts | 264° |
| 2026-04-22 04:00 | 33.92162 | -118.77323 | 10426 ft | 314 kts | 264° |
| 2026-04-22 04:00 | 33.91950 | -118.80026 | 10602 ft | 335 kts | 264° |
| 2026-04-22 04:00 | 33.91725 | -118.82887 | 10987 ft | 349 kts | 265° |
| 2026-04-22 04:01 | 33.91642 | -118.85830 | 11553 ft | 357 kts | 271° |
| 2026-04-22 04:01 | 33.91765 | -118.88830 | 12243 ft | 361 kts | 274° |
| 2026-04-22 04:01 | 33.91918 | -118.91856 | 12980 ft | 363 kts | 273° |
| 2026-04-22 04:01 | 33.92039 | -118.94905 | 13687 ft | 367 kts | 272° |
| 2026-04-22 04:02 | 33.92137 | -118.97998 | 14348 ft | 371 kts | 272° |
| 2026-04-22 04:02 | 33.92294 | -119.00886 | 14858 ft | 372 kts | 280° |
| 2026-04-22 04:02 | 33.93214 | -119.03805 | 15330 ft | 376 kts | 301° |
| 2026-04-22 04:02 | 33.94649 | -119.06460 | 15786 ft | 382 kts | 303° |
| 2026-04-22 04:03 | 33.96089 | -119.09152 | 16391 ft | 384 kts | 302° |
| 2026-04-22 04:03 | 33.97517 | -119.11880 | 17027 ft | 386 kts | 302° |
| 2026-04-22 04:03 | 33.98942 | -119.14638 | 17613 ft | 389 kts | 302° |
| 2026-04-22 04:03 | 34.00372 | -119.17400 | 18135 ft | 390 kts | 303° |
| 2026-04-22 04:04 | 34.02157 | -119.19873 | 18468 ft | 396 kts | 322° |
| 2026-04-22 04:04 | 34.04414 | -119.21789 | 18804 ft | 400 kts | 325° |
| 2026-04-22 04:04 | 34.06720 | -119.23685 | 19289 ft | 403 kts | 325° |
| 2026-04-22 04:04 | 34.09031 | -119.25606 | 19852 ft | 404 kts | 325° |
| 2026-04-22 04:05 | 34.11341 | -119.27552 | 20364 ft | 406 kts | 324° |
| 2026-04-22 04:05 | 34.13658 | -119.29523 | 20824 ft | 409 kts | 324° |
| 2026-04-22 04:05 | 34.15994 | -119.31526 | 21261 ft | 413 kts | 324° |
| 2026-04-22 04:05 | 34.18339 | -119.33544 | 21697 ft | 416 kts | 324° |
| 2026-04-22 04:06 | 34.20700 | -119.35581 | 22148 ft | 418 kts | 324° |
| 2026-04-22 04:06 | 34.23074 | -119.37631 | 22579 ft | 421 kts | 324° |
| 2026-04-22 04:06 | 34.25463 | -119.39696 | 23000 ft | 424 kts | 324° |
| 2026-04-22 04:06 | 34.27867 | -119.41775 | 23415 ft | 426 kts | 324° |
| 2026-04-22 04:07 | 34.30284 | -119.43865 | 23826 ft | 429 kts | 324° |
| 2026-04-22 04:07 | 34.32718 | -119.45973 | 24217 ft | 432 kts | 324° |
| 2026-04-22 04:07 | 34.35171 | -119.48097 | 24611 ft | 434 kts | 324° |
| 2026-04-22 04:07 | 34.37637 | -119.50235 | 24990 ft | 437 kts | 324° |
| 2026-04-22 04:08 | 34.40114 | -119.52384 | 25359 ft | 439 kts | 324° |
| 2026-04-22 04:08 | 34.42459 | -119.54754 | 25687 ft | 441 kts | 314° |
| 2026-04-22 04:08 | 34.44514 | -119.57535 | 25960 ft | 445 kts | 310° |
| 2026-04-22 04:08 | 34.46496 | -119.60443 | 26276 ft | 449 kts | 309° |
| 2026-04-22 04:09 | 34.48472 | -119.63393 | 26567 ft | 453 kts | 309° |
| 2026-04-22 04:09 | 34.50474 | -119.66367 | 26895 ft | 456 kts | 309° |
| 2026-04-22 04:09 | 34.52498 | -119.69332 | 27317 ft | 456 kts | 309° |
| 2026-04-22 04:09 | 34.54534 | -119.72277 | 27746 ft | 456 kts | 310° |
| 2026-04-22 04:10 | 34.56590 | -119.75225 | 28026 ft | 460 kts | 310° |
| 2026-04-22 04:10 | 34.58675 | -119.78201 | 28300 ft | 464 kts | 310° |
| 2026-04-22 04:10 | 34.60775 | -119.81192 | 28601 ft | 467 kts | 310° |
| 2026-04-22 04:10 | 34.62885 | -119.84197 | 28923 ft | 468 kts | 310° |
| 2026-04-22 04:11 | 34.64996 | -119.87207 | 29277 ft | 469 kts | 310° |
| 2026-04-22 04:11 | 34.67119 | -119.90238 | 29557 ft | 472 kts | 310° |
| 2026-04-22 04:11 | 34.69252 | -119.93287 | 29828 ft | 475 kts | 310° |
| 2026-04-22 04:11 | 34.71396 | -119.96356 | 30039 ft | 479 kts | 310° |
| 2026-04-22 04:12 | 34.73558 | -119.99454 | 30252 ft | 482 kts | 310° |
| 2026-04-22 04:12 | 34.75616 | -120.02406 | 30563 ft | 482 kts | 310° |
| 2026-04-22 04:12 | 34.77760 | -120.05483 | 30820 ft | 484 kts | 310° |
| 2026-04-22 04:12 | 34.79939 | -120.08615 | 31032 ft | 486 kts | 310° |
| 2026-04-22 04:13 | 34.82125 | -120.11759 | 31301 ft | 486 kts | 310° |
| 2026-04-22 04:13 | 34.84299 | -120.14888 | 31755 ft | 482 kts | 310° |
| 2026-04-22 04:13 | 34.86456 | -120.17994 | 32185 ft | 479 kts | 310° |
| 2026-04-22 04:13 | 34.88606 | -120.21095 | 32444 ft | 480 kts | 310° |
| 2026-04-22 04:14 | 34.90764 | -120.24209 | 32686 ft | 480 kts | 310° |
| 2026-04-22 04:14 | 34.92921 | -120.27325 | 32927 ft | 481 kts | 310° |
| 2026-04-22 04:14 | 34.95073 | -120.30436 | 33278 ft | 479 kts | 310° |
| 2026-04-22 04:14 | 34.97218 | -120.33541 | 33589 ft | 478 kts | 310° |
| 2026-04-22 04:15 | 34.99356 | -120.36637 | 33838 ft | 478 kts | 310° |
| 2026-04-22 04:15 | 35.01494 | -120.39737 | 33936 ft | 481 kts | 310° |
| 2026-04-22 04:15 | 35.05810 | -120.46001 | 33994 ft | 481 kts | 310° |
| 2026-04-22 04:16 | 35.12206 | -120.55308 | 34000 ft | 475 kts | 310° |
| 2026-04-22 04:17 | 35.16448 | -120.61492 | 34001 ft | 475 kts | 310° |
| 2026-04-22 04:17 | 35.20708 | -120.67716 | 34085 ft | 480 kts | 310° |
| 2026-04-22 04:17 | 35.22820 | -120.70805 | 34353 ft | 478 kts | 309° |
| 2026-04-22 04:18 | 35.24949 | -120.73921 | 34624 ft | 478 kts | 309° |
| 2026-04-22 04:18 | 35.27078 | -120.77042 | 34845 ft | 478 kts | 309° |
| 2026-04-22 04:18 | 35.29207 | -120.80165 | 35099 ft | 477 kts | 309° |
| 2026-04-22 04:18 | 35.31329 | -120.83279 | 35385 ft | 475 kts | 309° |
| 2026-04-22 04:19 | 35.33444 | -120.86387 | 35651 ft | 474 kts | 309° |
| 2026-04-22 04:19 | 35.35553 | -120.89489 | 35850 ft | 474 kts | 309° |
| 2026-04-22 04:19 | 35.37664 | -120.92596 | 35935 ft | 476 kts | 309° |
| 2026-04-22 04:20 | 35.41899 | -120.98840 | 36003 ft | 477 kts | 309° |
| 2026-04-22 04:20 | 35.46012 | -121.04914 | 35991 ft | 473 kts | 309° |
| 2026-04-22 04:21 | 35.50214 | -121.11094 | 35995 ft | 470 kts | 310° |
| 2026-04-22 04:21 | 35.54462 | -121.17189 | 35999 ft | 469 kts | 310° |
| 2026-04-22 04:22 | 35.58706 | -121.23267 | 36006 ft | 469 kts | 310° |
| 2026-04-22 04:22 | 35.62942 | -121.29365 | 36004 ft | 470 kts | 310° |
| 2026-04-22 04:23 | 35.67185 | -121.35495 | 36002 ft | 472 kts | 310° |
| 2026-04-22 04:23 | 35.71442 | -121.41660 | 36000 ft | 473 kts | 310° |
| 2026-04-22 04:24 | 35.75707 | -121.47847 | 36004 ft | 475 kts | 310° |
| 2026-04-22 04:24 | 35.79983 | -121.54060 | 36005 ft | 476 kts | 310° |
| 2026-04-22 04:25 | 35.84263 | -121.60290 | 36002 ft | 476 kts | 310° |
| 2026-04-22 04:25 | 35.88510 | -121.66484 | 36001 ft | 476 kts | 310° |
| 2026-04-22 04:26 | 35.92784 | -121.72728 | 35999 ft | 476 kts | 310° |
| 2026-04-22 04:26 | 35.97060 | -121.78962 | 36005 ft | 475 kts | 312° |
| 2026-04-22 04:27 | 36.02025 | -121.84313 | 36003 ft | 475 kts | 325° |
| 2026-04-22 04:27 | 36.07762 | -121.88317 | 36010 ft | 474 kts | 333° |
| 2026-04-22 04:28 | 36.13680 | -121.91929 | 36002 ft | 474 kts | 333° |
| 2026-04-22 04:28 | 36.19585 | -121.95557 | 35999 ft | 474 kts | 333° |
| 2026-04-22 04:29 | 36.25471 | -121.99228 | 36003 ft | 474 kts | 333° |
| 2026-04-22 04:29 | 36.31202 | -122.02830 | 36002 ft | 474 kts | 333° |
| 2026-04-22 04:30 | 36.37085 | -122.06536 | 36000 ft | 474 kts | 333° |
| 2026-04-22 04:30 | 36.42967 | -122.10246 | 36001 ft | 474 kts | 333° |
| 2026-04-22 04:31 | 36.48853 | -122.13963 | 36003 ft | 474 kts | 333° |
| 2026-04-22 04:31 | 36.54737 | -122.17686 | 35999 ft | 475 kts | 333° |
| 2026-04-22 04:32 | 36.60620 | -122.21414 | 36001 ft | 475 kts | 333° |
| 2026-04-22 04:32 | 36.66506 | -122.25150 | 36003 ft | 475 kts | 333° |
| 2026-04-22 04:33 | 36.72391 | -122.28892 | 36001 ft | 475 kts | 333° |
| 2026-04-22 04:33 | 36.78271 | -122.32638 | 36002 ft | 475 kts | 333° |
| 2026-04-22 04:34 | 36.84121 | -122.36370 | 36002 ft | 475 kts | 333° |
| 2026-04-22 04:34 | 36.90039 | -122.40153 | 36001 ft | 475 kts | 333° |
| 2026-04-22 04:35 | 36.95876 | -122.43891 | 35999 ft | 475 kts | 333° |
| 2026-04-22 04:35 | 37.01742 | -122.47654 | 36001 ft | 475 kts | 333° |
| 2026-04-22 04:36 | 37.07618 | -122.51430 | 36000 ft | 475 kts | 333° |
| 2026-04-22 04:36 | 37.13496 | -122.55214 | 36003 ft | 474 kts | 332° |
| 2026-04-22 04:37 | 37.19363 | -122.58997 | 36003 ft | 474 kts | 332° |
| 2026-04-22 04:37 | 37.25235 | -122.62791 | 36003 ft | 474 kts | 332° |
| 2026-04-22 04:38 | 37.31116 | -122.66541 | 35998 ft | 474 kts | 336° |
| 2026-04-22 04:38 | 37.37234 | -122.69657 | 36004 ft | 474 kts | 338° |
| 2026-04-22 04:39 | 37.43392 | -122.72662 | 36002 ft | 475 kts | 338° |
| 2026-04-22 04:39 | 37.49538 | -122.75696 | 36004 ft | 475 kts | 338° |
| 2026-04-22 04:40 | 37.55681 | -122.78767 | 36002 ft | 475 kts | 338° |
| 2026-04-22 04:40 | 37.61817 | -122.81848 | 36002 ft | 475 kts | 338° |
| 2026-04-22 04:41 | 37.67916 | -122.84916 | 36004 ft | 475 kts | 338° |
| 2026-04-22 04:41 | 37.74052 | -122.88006 | 36001 ft | 475 kts | 338° |
| 2026-04-22 04:42 | 37.80193 | -122.91103 | 36001 ft | 475 kts | 338° |
| 2026-04-22 04:42 | 37.86334 | -122.94206 | 36001 ft | 475 kts | 338° |
| 2026-04-22 04:43 | 37.92462 | -122.97308 | 36001 ft | 475 kts | 338° |
| 2026-04-22 04:43 | 37.98420 | -123.00330 | 35999 ft | 475 kts | 338° |
| 2026-04-22 04:44 | 38.04547 | -123.03442 | 36001 ft | 475 kts | 338° |
| 2026-04-22 04:44 | 38.09652 | -123.06040 | 36001 ft | 475 kts | 338° |
| 2026-04-22 04:45 | 38.15783 | -123.09166 | 36001 ft | 475 kts | 338° |
| 2026-04-22 04:45 | 38.21907 | -123.12295 | 36000 ft | 475 kts | 337° |
| 2026-04-22 04:46 | 38.27879 | -123.15858 | 36004 ft | 474 kts | 333° |
| 2026-04-22 04:46 | 38.33779 | -123.19637 | 36002 ft | 474 kts | 333° |
| 2026-04-22 04:47 | 38.39670 | -123.23419 | 36001 ft | 474 kts | 333° |
| 2026-04-22 04:47 | 38.45585 | -123.27191 | 35999 ft | 475 kts | 333° |
| 2026-04-22 04:48 | 38.51489 | -123.30948 | 36000 ft | 475 kts | 333° |
| 2026-04-22 04:48 | 38.57366 | -123.34691 | 35999 ft | 475 kts | 333° |
| 2026-04-22 04:49 | 38.63276 | -123.38464 | 36005 ft | 475 kts | 333° |
| 2026-04-22 04:49 | 38.69225 | -123.42269 | 36003 ft | 475 kts | 333° |
| 2026-04-22 04:50 | 38.75100 | -123.46034 | 36003 ft | 475 kts | 333° |
| 2026-04-22 04:50 | 38.81016 | -123.49833 | 35998 ft | 476 kts | 333° |
| 2026-04-22 04:51 | 38.86939 | -123.53643 | 36007 ft | 476 kts | 333° |
| 2026-04-22 04:51 | 38.92869 | -123.57465 | 35998 ft | 477 kts | 333° |
| 2026-04-22 04:52 | 38.98807 | -123.61299 | 36004 ft | 478 kts | 333° |
| 2026-04-22 04:52 | 39.04738 | -123.65137 | 36004 ft | 478 kts | 333° |
| 2026-04-22 04:53 | 39.10678 | -123.68986 | 36002 ft | 478 kts | 333° |
| 2026-04-22 04:53 | 39.16619 | -123.72844 | 35995 ft | 478 kts | 333° |
| 2026-04-22 04:54 | 39.22546 | -123.76701 | 36000 ft | 477 kts | 333° |
| 2026-04-22 04:54 | 39.28461 | -123.80557 | 35996 ft | 476 kts | 333° |
| 2026-04-22 04:55 | 39.34320 | -123.84383 | 36000 ft | 474 kts | 333° |
| 2026-04-22 04:55 | 39.40198 | -123.88229 | 36004 ft | 474 kts | 333° |
| 2026-04-22 04:56 | 39.46071 | -123.92080 | 36004 ft | 473 kts | 333° |
| 2026-04-22 04:56 | 39.51938 | -123.95933 | 36000 ft | 473 kts | 333° |
| 2026-04-22 04:57 | 39.57810 | -123.99797 | 36000 ft | 473 kts | 333° |
| 2026-04-22 04:57 | 39.63530 | -124.03568 | 36000 ft | 473 kts | 333° |
| 2026-04-22 04:58 | 39.69400 | -124.07446 | 36004 ft | 474 kts | 333° |
| 2026-04-22 04:58 | 39.75279 | -124.11337 | 36002 ft | 474 kts | 333° |
| 2026-04-22 04:59 | 39.81156 | -124.15235 | 36004 ft | 475 kts | 333° |
| 2026-04-22 04:59 | 39.87042 | -124.19145 | 36001 ft | 475 kts | 333° |
| 2026-04-22 05:00 | 39.92931 | -124.23066 | 36003 ft | 475 kts | 333° |
| 2026-04-22 05:00 | 39.98817 | -124.26992 | 36001 ft | 475 kts | 333° |
| 2026-04-22 05:01 | 40.04692 | -124.30918 | 35999 ft | 475 kts | 333° |
| 2026-04-22 05:01 | 40.10573 | -124.34856 | 36001 ft | 475 kts | 333° |
| 2026-04-22 05:02 | 40.16451 | -124.38799 | 36003 ft | 475 kts | 332° |
| 2026-04-22 05:02 | 40.22330 | -124.42751 | 36001 ft | 475 kts | 332° |
| 2026-04-22 05:03 | 40.28201 | -124.46706 | 36004 ft | 475 kts | 332° |
| 2026-04-22 05:03 | 40.34075 | -124.50670 | 36001 ft | 474 kts | 332° |
| 2026-04-22 05:04 | 40.39898 | -124.54608 | 36002 ft | 474 kts | 332° |
| 2026-04-22 05:04 | 40.45798 | -124.58605 | 36003 ft | 474 kts | 332° |
| 2026-04-22 05:05 | 40.51622 | -124.62559 | 36001 ft | 474 kts | 332° |
| 2026-04-22 05:05 | 40.57480 | -124.66544 | 35999 ft | 474 kts | 332° |
| 2026-04-22 05:06 | 40.63383 | -124.70567 | 36002 ft | 474 kts | 332° |
| 2026-04-22 05:06 | 40.69198 | -124.74539 | 36002 ft | 474 kts | 332° |
| 2026-04-22 05:07 | 40.75095 | -124.78574 | 36002 ft | 474 kts | 332° |
| 2026-04-22 05:07 | 40.80911 | -124.82562 | 35998 ft | 474 kts | 332° |
| 2026-04-22 05:08 | 40.86767 | -124.86585 | 36003 ft | 474 kts | 332° |
| 2026-04-22 05:08 | 40.92619 | -124.90614 | 36002 ft | 474 kts | 332° |
| 2026-04-22 05:09 | 40.98476 | -124.94654 | 35999 ft | 474 kts | 332° |
| 2026-04-22 05:09 | 41.04318 | -124.98692 | 36002 ft | 474 kts | 332° |
| 2026-04-22 05:10 | 41.10031 | -125.02649 | 36002 ft | 474 kts | 332° |
| 2026-04-22 05:10 | 41.15880 | -125.06707 | 36003 ft | 475 kts | 332° |
| 2026-04-22 05:11 | 41.21733 | -125.10778 | 36000 ft | 474 kts | 332° |
| 2026-04-22 05:11 | 41.27576 | -125.14849 | 36004 ft | 474 kts | 332° |
| 2026-04-22 05:12 | 41.33420 | -125.18929 | 35998 ft | 474 kts | 332° |
| 2026-04-22 05:12 | 41.39268 | -125.23021 | 35999 ft | 474 kts | 332° |
| 2026-04-22 05:13 | 41.45107 | -125.27115 | 36000 ft | 474 kts | 332° |
| 2026-04-22 05:13 | 41.50951 | -125.31220 | 35999 ft | 474 kts | 332° |
| 2026-04-22 05:14 | 41.56757 | -125.35307 | 35999 ft | 474 kts | 332° |
| 2026-04-22 05:14 | 41.62593 | -125.39424 | 35999 ft | 474 kts | 332° |
| 2026-04-22 05:15 | 41.68423 | -125.43545 | 36001 ft | 474 kts | 332° |
| 2026-04-22 05:15 | 41.74263 | -125.47681 | 35998 ft | 474 kts | 332° |
| 2026-04-22 05:16 | 41.80090 | -125.51818 | 35999 ft | 474 kts | 332° |
| 2026-04-22 05:16 | 41.85923 | -125.55966 | 36002 ft | 474 kts | 332° |
| 2026-04-22 05:17 | 41.91750 | -125.60119 | 36001 ft | 474 kts | 332° |
| 2026-04-22 05:17 | 41.97583 | -125.64285 | 36004 ft | 474 kts | 332° |
| 2026-04-22 05:18 | 42.06310 | -125.70535 | 35999 ft | 474 kts | 332° |
| 2026-04-22 05:18 | 42.12138 | -125.74719 | 35999 ft | 474 kts | 332° |
| 2026-04-22 05:19 | 42.17957 | -125.78906 | 36003 ft | 474 kts | 332° |
| 2026-04-22 05:19 | 42.23780 | -125.83104 | 36002 ft | 474 kts | 332° |
| 2026-04-22 05:20 | 42.29600 | -125.87310 | 36003 ft | 474 kts | 332° |
| 2026-04-22 05:20 | 42.35420 | -125.91524 | 36003 ft | 474 kts | 332° |
| 2026-04-22 05:21 | 42.41197 | -125.95716 | 35999 ft | 474 kts | 332° |
| 2026-04-22 05:21 | 42.47007 | -125.99940 | 36004 ft | 474 kts | 331° |
| 2026-04-22 05:22 | 42.52690 | -126.04082 | 36002 ft | 474 kts | 331° |
| 2026-04-22 05:22 | 42.58496 | -126.08322 | 36002 ft | 474 kts | 331° |
| 2026-04-22 05:23 | 42.64312 | -126.12578 | 35998 ft | 474 kts | 331° |
| 2026-04-22 05:23 | 42.70094 | -126.16908 | 35997 ft | 474 kts | 327° |
| 2026-04-22 05:24 | 42.75320 | -126.22331 | 36003 ft | 473 kts | 317° |
| 2026-04-22 05:24 | 42.80135 | -126.28443 | 36006 ft | 473 kts | 316° |
| 2026-04-22 05:25 | 42.84953 | -126.34585 | 36004 ft | 474 kts | 317° |
| 2026-04-22 05:25 | 42.89787 | -126.40691 | 36001 ft | 474 kts | 317° |
| 2026-04-22 05:26 | 42.94632 | -126.46796 | 35999 ft | 474 kts | 317° |
| 2026-04-22 05:26 | 42.99474 | -126.52912 | 36000 ft | 474 kts | 317° |
| 2026-04-22 05:27 | 43.04301 | -126.59025 | 36000 ft | 474 kts | 317° |
| 2026-04-22 05:27 | 43.09105 | -126.65125 | 35998 ft | 474 kts | 317° |
| 2026-04-22 05:28 | 43.13939 | -126.71272 | 36002 ft | 474 kts | 317° |
| 2026-04-22 05:28 | 43.18770 | -126.77423 | 36001 ft | 474 kts | 317° |
| 2026-04-22 05:29 | 43.23598 | -126.83581 | 35998 ft | 474 kts | 317° |
| 2026-04-22 05:29 | 43.28420 | -126.89747 | 35999 ft | 474 kts | 317° |
| 2026-04-22 05:30 | 43.33242 | -126.95929 | 36001 ft | 474 kts | 316° |
| 2026-04-22 05:30 | 43.37937 | -127.01961 | 36002 ft | 474 kts | 316° |
| 2026-04-22 05:31 | 43.42746 | -127.08155 | 36001 ft | 474 kts | 316° |
| 2026-04-22 05:31 | 43.46744 | -127.13314 | 36003 ft | 474 kts | 316° |
| 2026-04-22 05:32 | 43.52328 | -127.20536 | 36001 ft | 474 kts | 316° |
| 2026-04-22 05:32 | 43.57126 | -127.26758 | 36002 ft | 474 kts | 316° |
| 2026-04-22 05:33 | 43.61927 | -127.32998 | 36000 ft | 474 kts | 316° |
| 2026-04-22 05:33 | 43.65907 | -127.38181 | 36000 ft | 474 kts | 316° |
| 2026-04-22 05:34 | 43.70700 | -127.44436 | 36001 ft | 474 kts | 316° |
| 2026-04-22 05:34 | 43.75523 | -127.50745 | 36001 ft | 474 kts | 316° |
| 2026-04-22 05:35 | 43.80306 | -127.57017 | 36001 ft | 474 kts | 316° |
| 2026-04-22 05:35 | 43.85055 | -127.63258 | 36004 ft | 474 kts | 316° |
| 2026-04-22 05:36 | 43.89833 | -127.69552 | 35999 ft | 474 kts | 316° |
| 2026-04-22 05:36 | 43.94606 | -127.75854 | 36004 ft | 474 kts | 316° |
| 2026-04-22 05:37 | 43.99376 | -127.82167 | 36004 ft | 474 kts | 316° |
| 2026-04-22 05:37 | 44.04139 | -127.88486 | 36002 ft | 474 kts | 316° |
| 2026-04-22 05:38 | 44.08906 | -127.94823 | 36003 ft | 474 kts | 316° |
| 2026-04-22 05:38 | 44.13538 | -128.00997 | 36002 ft | 474 kts | 316° |
| 2026-04-22 05:39 | 44.18294 | -128.07350 | 35999 ft | 474 kts | 316° |
| 2026-04-22 05:39 | 44.23047 | -128.13714 | 36001 ft | 474 kts | 316° |
| 2026-04-22 05:40 | 44.27799 | -128.20092 | 36002 ft | 474 kts | 316° |
| 2026-04-22 05:40 | 44.32545 | -128.26477 | 36003 ft | 474 kts | 316° |
| 2026-04-22 05:41 | 44.37288 | -128.32872 | 35998 ft | 474 kts | 316° |
| 2026-04-22 05:41 | 44.42031 | -128.39283 | 35998 ft | 474 kts | 316° |
| 2026-04-22 05:42 | 44.46766 | -128.45699 | 35999 ft | 474 kts | 316° |
| 2026-04-22 05:42 | 44.51500 | -128.52129 | 36002 ft | 474 kts | 315° |
| 2026-04-22 05:43 | 44.56196 | -128.58522 | 36000 ft | 474 kts | 315° |
| 2026-04-22 05:43 | 44.60920 | -128.64968 | 36004 ft | 474 kts | 315° |
| 2026-04-22 05:44 | 44.65637 | -128.71421 | 36002 ft | 474 kts | 315° |
| 2026-04-22 05:44 | 44.70360 | -128.77897 | 35998 ft | 474 kts | 315° |
| 2026-04-22 05:45 | 44.75073 | -128.84376 | 36000 ft | 474 kts | 315° |
| 2026-04-22 05:45 | 44.79783 | -128.90865 | 35999 ft | 474 kts | 315° |
| 2026-04-22 05:46 | 44.84484 | -128.97357 | 35998 ft | 474 kts | 315° |
| 2026-04-22 05:46 | 44.89055 | -129.03686 | 35998 ft | 474 kts | 315° |
| 2026-04-22 05:47 | 44.93754 | -129.10207 | 36004 ft | 474 kts | 315° |
| 2026-04-22 05:47 | 44.98418 | -129.16695 | 36001 ft | 474 kts | 315° |
| 2026-04-22 05:48 | 45.03100 | -129.23224 | 36001 ft | 474 kts | 315° |
| 2026-04-22 05:48 | 45.07792 | -129.29783 | 36002 ft | 474 kts | 315° |
| 2026-04-22 05:49 | 45.12473 | -129.36342 | 36002 ft | 474 kts | 315° |
| 2026-04-22 05:49 | 45.17151 | -129.42913 | 36004 ft | 474 kts | 315° |
| 2026-04-22 05:50 | 45.21826 | -129.49497 | 36001 ft | 474 kts | 315° |
| 2026-04-22 05:50 | 45.26500 | -129.56094 | 36001 ft | 474 kts | 315° |
| 2026-04-22 05:51 | 45.31168 | -129.62701 | 36002 ft | 474 kts | 315° |
| 2026-04-22 05:51 | 45.35835 | -129.69321 | 36002 ft | 474 kts | 315° |
| 2026-04-22 05:52 | 45.40495 | -129.75948 | 35999 ft | 474 kts | 315° |
| 2026-04-22 05:52 | 45.45149 | -129.82583 | 35999 ft | 474 kts | 315° |
| 2026-04-22 05:53 | 45.49802 | -129.89233 | 36003 ft | 474 kts | 315° |
| 2026-04-22 05:53 | 45.54450 | -129.95893 | 36002 ft | 474 kts | 314° |
| 2026-04-22 05:54 | 45.58988 | -130.02411 | 36001 ft | 474 kts | 314° |
| 2026-04-22 05:54 | 45.63600 | -130.09050 | 35998 ft | 474 kts | 314° |
| 2026-04-22 05:55 | 45.68265 | -130.15783 | 35999 ft | 474 kts | 314° |
| 2026-04-22 05:55 | 45.72899 | -130.22489 | 36003 ft | 474 kts | 314° |
| 2026-04-22 05:56 | 45.77530 | -130.29207 | 35999 ft | 474 kts | 314° |
| 2026-04-22 05:56 | 45.82155 | -130.35933 | 36001 ft | 474 kts | 314° |
| 2026-04-22 05:57 | 45.86742 | -130.42621 | 36002 ft | 474 kts | 314° |
| 2026-04-22 05:57 | 45.91359 | -130.49370 | 36000 ft | 474 kts | 314° |
| 2026-04-22 05:58 | 45.95971 | -130.56127 | 36001 ft | 474 kts | 314° |
| 2026-04-22 05:58 | 46.00576 | -130.62892 | 36002 ft | 474 kts | 314° |
| 2026-04-22 05:59 | 46.05180 | -130.69673 | 36001 ft | 474 kts | 314° |
| 2026-04-22 05:59 | 46.09782 | -130.76467 | 36001 ft | 474 kts | 314° |
| 2026-04-22 06:00 | 46.14380 | -130.83273 | 35999 ft | 474 kts | 314° |
| 2026-04-22 06:00 | 46.18973 | -130.90089 | 36002 ft | 474 kts | 314° |
| 2026-04-22 06:01 | 46.23563 | -130.96918 | 35999 ft | 474 kts | 314° |
| 2026-04-22 06:01 | 46.28043 | -131.03601 | 36002 ft | 474 kts | 314° |
| 2026-04-22 06:02 | 46.32596 | -131.10409 | 36001 ft | 474 kts | 314° |
| 2026-04-22 06:02 | 46.37172 | -131.17270 | 35999 ft | 474 kts | 314° |
| 2026-04-22 06:03 | 46.41741 | -131.24137 | 36001 ft | 474 kts | 314° |
| 2026-04-22 06:03 | 46.46311 | -131.31024 | 36002 ft | 474 kts | 314° |
| 2026-04-22 06:04 | 46.50876 | -131.37921 | 36001 ft | 474 kts | 314° |
| 2026-04-22 06:04 | 46.55435 | -131.44828 | 36003 ft | 474 kts | 313° |
| 2026-04-22 06:05 | 46.59993 | -131.51749 | 36003 ft | 474 kts | 313° |
| 2026-04-22 06:05 | 46.64540 | -131.58673 | 36002 ft | 474 kts | 313° |
| 2026-04-22 06:06 | 46.69086 | -131.65613 | 35999 ft | 474 kts | 313° |
| 2026-04-22 06:06 | 46.73632 | -131.72571 | 36000 ft | 474 kts | 313° |
| 2026-04-22 06:07 | 46.78168 | -131.79533 | 36001 ft | 474 kts | 313° |
| 2026-04-22 06:07 | 46.82701 | -131.86508 | 35999 ft | 474 kts | 313° |
| 2026-04-22 06:08 | 46.87231 | -131.93497 | 36002 ft | 474 kts | 313° |
| 2026-04-22 06:08 | 46.91647 | -132.00328 | 36002 ft | 474 kts | 313° |
| 2026-04-22 06:09 | 46.96167 | -132.07337 | 36003 ft | 474 kts | 313° |
| 2026-04-22 06:09 | 47.00543 | -132.14511 | 35998 ft | 473 kts | 307° |
| 2026-04-22 06:10 | 47.04178 | -132.22543 | 36003 ft | 473 kts | 302° |
| 2026-04-22 06:10 | 47.07689 | -132.30712 | 36000 ft | 473 kts | 302° |
| 2026-04-22 06:11 | 47.11205 | -132.38865 | 36001 ft | 473 kts | 302° |
| 2026-04-22 06:11 | 47.14741 | -132.47016 | 36001 ft | 473 kts | 302° |
| 2026-04-22 06:12 | 47.18262 | -132.55126 | 36000 ft | 474 kts | 302° |
| 2026-04-22 06:12 | 47.21799 | -132.63294 | 36001 ft | 474 kts | 302° |
| 2026-04-22 06:13 | 47.25332 | -132.71480 | 36001 ft | 474 kts | 302° |
| 2026-04-22 06:13 | 47.28857 | -132.79676 | 35999 ft | 474 kts | 302° |
| 2026-04-22 06:14 | 47.32376 | -132.87881 | 36004 ft | 474 kts | 302° |
| 2026-04-22 06:14 | 47.35887 | -132.96094 | 36003 ft | 473 kts | 302° |
| 2026-04-22 06:15 | 47.39308 | -133.04119 | 36003 ft | 473 kts | 302° |
| 2026-04-22 06:15 | 47.42810 | -133.12358 | 36003 ft | 473 kts | 302° |
| 2026-04-22 06:16 | 47.46302 | -133.20598 | 36004 ft | 473 kts | 302° |
| 2026-04-22 06:16 | 47.49788 | -133.28849 | 35999 ft | 473 kts | 302° |
| 2026-04-22 06:17 | 47.53270 | -133.37116 | 36004 ft | 473 kts | 302° |
| 2026-04-22 06:17 | 47.56743 | -133.45386 | 36001 ft | 473 kts | 302° |
| 2026-04-22 06:18 | 47.60212 | -133.53674 | 36003 ft | 473 kts | 301° |
| 2026-04-22 06:18 | 47.63654 | -133.61919 | 36001 ft | 473 kts | 301° |
| 2026-04-22 06:19 | 47.67107 | -133.70219 | 36002 ft | 473 kts | 301° |
| 2026-04-22 06:19 | 47.70556 | -133.78532 | 36001 ft | 473 kts | 301° |
| 2026-04-22 06:20 | 47.74000 | -133.86859 | 36004 ft | 473 kts | 301° |
| 2026-04-22 06:20 | 47.77442 | -133.95210 | 36004 ft | 473 kts | 301° |
| 2026-04-22 06:21 | 47.80215 | -134.01952 | 36003 ft | 473 kts | 301° |
| 2026-04-22 06:21 | 47.83644 | -134.10316 | 36001 ft | 473 kts | 301° |
| 2026-04-22 06:22 | 47.87063 | -134.18682 | 36002 ft | 473 kts | 301° |
| 2026-04-22 06:22 | 47.90478 | -134.27063 | 36004 ft | 473 kts | 301° |
| 2026-04-22 06:23 | 47.93888 | -134.35458 | 36000 ft | 473 kts | 301° |
| 2026-04-22 06:23 | 47.97289 | -134.43857 | 36000 ft | 473 kts | 301° |
| 2026-04-22 06:24 | 48.02374 | -134.56462 | 36000 ft | 473 kts | 301° |
| 2026-04-22 06:25 | 48.05763 | -134.64898 | 36002 ft | 473 kts | 301° |
| 2026-04-22 06:25 | 48.09145 | -134.73341 | 35999 ft | 473 kts | 301° |
| 2026-04-22 06:26 | 48.12496 | -134.81733 | 36000 ft | 473 kts | 301° |
| 2026-04-22 06:26 | 48.15864 | -134.90195 | 36000 ft | 473 kts | 301° |
| 2026-04-22 06:27 | 48.19225 | -134.98667 | 35998 ft | 473 kts | 300° |
| 2026-04-22 06:27 | 48.22499 | -135.06945 | 35999 ft | 473 kts | 300° |
| 2026-04-22 06:28 | 48.25849 | -135.15439 | 35998 ft | 473 kts | 300° |
| 2026-04-22 06:28 | 48.29192 | -135.23945 | 36000 ft | 473 kts | 300° |
| 2026-04-22 06:29 | 48.32527 | -135.32459 | 36004 ft | 473 kts | 300° |
| 2026-04-22 06:29 | 48.35857 | -135.40986 | 35998 ft | 473 kts | 300° |
| 2026-04-22 06:30 | 48.39183 | -135.49529 | 35999 ft | 473 kts | 300° |
| 2026-04-22 06:30 | 48.42500 | -135.58077 | 36001 ft | 473 kts | 300° |
| 2026-04-22 06:31 | 48.45812 | -135.66639 | 36004 ft | 473 kts | 300° |
| 2026-04-22 06:31 | 48.49095 | -135.75154 | 36004 ft | 473 kts | 300° |
| 2026-04-22 06:32 | 48.52392 | -135.83734 | 36003 ft | 473 kts | 300° |
| 2026-04-22 06:32 | 48.55684 | -135.92328 | 36004 ft | 473 kts | 300° |
| 2026-04-22 06:33 | 48.58881 | -136.00701 | 36000 ft | 473 kts | 300° |
| 2026-04-22 06:33 | 48.62159 | -136.09312 | 35999 ft | 473 kts | 300° |
| 2026-04-22 06:34 | 48.65431 | -136.17937 | 36004 ft | 473 kts | 300° |
| 2026-04-22 06:34 | 48.68700 | -136.26583 | 36001 ft | 473 kts | 300° |
| 2026-04-22 06:35 | 48.71960 | -136.35231 | 36002 ft | 473 kts | 300° |
| 2026-04-22 06:35 | 48.75212 | -136.43887 | 36004 ft | 473 kts | 299° |
| 2026-04-22 06:36 | 48.78460 | -136.52563 | 36001 ft | 473 kts | 299° |
| 2026-04-22 06:36 | 48.81699 | -136.61241 | 36004 ft | 473 kts | 299° |
| 2026-04-22 06:37 | 48.84934 | -136.69937 | 36001 ft | 473 kts | 299° |
| 2026-04-22 06:37 | 48.88159 | -136.78637 | 36002 ft | 473 kts | 299° |
| 2026-04-22 06:38 | 48.91381 | -136.87356 | 36001 ft | 473 kts | 299° |
| 2026-04-22 06:38 | 48.94594 | -136.96082 | 36001 ft | 473 kts | 299° |
| 2026-04-22 06:39 | 48.97714 | -137.04580 | 36004 ft | 473 kts | 299° |
| 2026-04-22 06:39 | 49.00880 | -137.13233 | 36000 ft | 473 kts | 299° |
| 2026-04-22 06:40 | 49.04072 | -137.21987 | 36000 ft | 473 kts | 299° |
| 2026-04-22 06:40 | 49.07261 | -137.30764 | 36002 ft | 473 kts | 298° |
| 2026-04-22 06:41 | 49.10440 | -137.39540 | 36002 ft | 473 kts | 298° |
| 2026-04-22 06:41 | 49.13613 | -137.48330 | 36002 ft | 473 kts | 298° |
| 2026-04-22 06:42 | 49.16778 | -137.57129 | 35998 ft | 473 kts | 298° |
| 2026-04-22 06:42 | 49.19937 | -137.65939 | 36002 ft | 473 kts | 298° |
| 2026-04-22 06:43 | 49.23091 | -137.74766 | 36001 ft | 473 kts | 298° |
| 2026-04-22 06:43 | 49.26239 | -137.83606 | 36002 ft | 473 kts | 298° |
| 2026-04-22 06:44 | 49.29377 | -137.92449 | 36002 ft | 473 kts | 298° |
| 2026-04-22 06:44 | 49.32425 | -138.01065 | 36003 ft | 473 kts | 298° |
| 2026-04-22 06:45 | 49.35547 | -138.09924 | 36002 ft | 473 kts | 298° |
| 2026-04-22 06:45 | 49.38667 | -138.18805 | 35999 ft | 473 kts | 298° |
| 2026-04-22 06:46 | 49.41758 | -138.27636 | 36004 ft | 473 kts | 298° |
| 2026-04-22 06:46 | 49.44865 | -138.36541 | 36004 ft | 473 kts | 298° |
| 2026-04-22 06:47 | 49.47983 | -138.45510 | 36004 ft | 473 kts | 298° |
| 2026-04-22 06:47 | 49.51055 | -138.54376 | 36004 ft | 473 kts | 298° |
| 2026-04-22 06:48 | 49.54140 | -138.63312 | 36003 ft | 473 kts | 298° |
| 2026-04-22 06:48 | 49.57215 | -138.72252 | 36004 ft | 473 kts | 297° |
| 2026-04-22 06:49 | 49.60287 | -138.81212 | 36002 ft | 473 kts | 297° |
| 2026-04-22 06:49 | 49.63351 | -138.90180 | 35998 ft | 473 kts | 297° |
| 2026-04-22 06:50 | 49.66408 | -138.99160 | 36004 ft | 473 kts | 297° |
| 2026-04-22 06:50 | 49.69372 | -139.07898 | 36004 ft | 473 kts | 297° |
| 2026-04-22 06:51 | 49.72416 | -139.16900 | 36003 ft | 472 kts | 297° |
| 2026-04-22 06:51 | 49.75451 | -139.25912 | 36002 ft | 472 kts | 297° |
| 2026-04-22 06:52 | 49.78461 | -139.34880 | 35999 ft | 472 kts | 297° |
| 2026-04-22 06:52 | 49.81479 | -139.43903 | 35999 ft | 472 kts | 297° |
| 2026-04-22 06:53 | 49.84496 | -139.52954 | 36001 ft | 472 kts | 297° |
| 2026-04-22 06:53 | 49.87503 | -139.62009 | 36000 ft | 472 kts | 297° |
| 2026-04-22 06:54 | 49.90500 | -139.71068 | 36004 ft | 472 kts | 297° |
| 2026-04-22 06:54 | 49.93495 | -139.80152 | 36000 ft | 472 kts | 297° |
| 2026-04-22 06:55 | 49.96480 | -139.89239 | 36001 ft | 472 kts | 297° |
| 2026-04-22 06:55 | 49.99457 | -139.98332 | 36000 ft | 472 kts | 296° |
| 2026-04-22 06:56 | 50.01973 | -140.07481 | 36004 ft | 472 kts | 291° |
| 2026-04-22 06:56 | 50.04333 | -140.17005 | 36001 ft | 472 kts | 291° |
| 2026-04-22 06:57 | 50.06685 | -140.26539 | 36000 ft | 472 kts | 291° |
| 2026-04-22 06:57 | 50.09051 | -140.36078 | 36003 ft | 472 kts | 291° |
| 2026-04-22 06:58 | 50.11422 | -140.45630 | 36003 ft | 472 kts | 291° |
| 2026-04-22 06:58 | 50.13783 | -140.55174 | 36002 ft | 472 kts | 291° |
| 2026-04-22 06:59 | 50.16140 | -140.64743 | 36001 ft | 472 kts | 291° |
| 2026-04-22 06:59 | 50.18471 | -140.74248 | 36002 ft | 472 kts | 291° |
| 2026-04-22 07:00 | 50.20810 | -140.83832 | 36002 ft | 472 kts | 290° |
| 2026-04-22 07:00 | 50.23141 | -140.93425 | 36001 ft | 472 kts | 290° |
| 2026-04-22 07:01 | 50.25411 | -141.02803 | 36001 ft | 472 kts | 290° |
| 2026-04-22 07:01 | 50.27726 | -141.12412 | 36002 ft | 472 kts | 290° |
| 2026-04-22 07:02 | 50.30033 | -141.22029 | 36000 ft | 472 kts | 290° |
| 2026-04-22 07:02 | 50.32330 | -141.31651 | 36002 ft | 472 kts | 290° |
| 2026-04-22 07:03 | 50.34619 | -141.41276 | 36002 ft | 472 kts | 290° |
| 2026-04-22 07:03 | 50.36901 | -141.50917 | 36001 ft | 472 kts | 290° |
| 2026-04-22 07:04 | 50.39174 | -141.60563 | 36000 ft | 472 kts | 290° |
| 2026-04-22 07:04 | 50.41442 | -141.70230 | 36000 ft | 472 kts | 290° |
| 2026-04-22 07:05 | 50.43700 | -141.79900 | 36004 ft | 472 kts | 290° |
| 2026-04-22 07:05 | 50.45935 | -141.89512 | 36004 ft | 472 kts | 290° |
| 2026-04-22 07:06 | 50.48178 | -141.99202 | 36002 ft | 472 kts | 290° |
| 2026-04-22 07:06 | 50.50361 | -142.08675 | 36003 ft | 472 kts | 290° |
| 2026-04-22 07:07 | 50.52587 | -142.18380 | 36003 ft | 472 kts | 289° |
| 2026-04-22 07:07 | 50.54804 | -142.28092 | 35999 ft | 472 kts | 289° |
| 2026-04-22 07:08 | 50.57014 | -142.37813 | 36001 ft | 472 kts | 289° |
| 2026-04-22 07:08 | 50.59216 | -142.47546 | 36000 ft | 472 kts | 289° |
| 2026-04-22 07:09 | 50.61410 | -142.57290 | 36003 ft | 472 kts | 289° |
| 2026-04-22 07:09 | 50.63596 | -142.67043 | 36000 ft | 472 kts | 289° |
| 2026-04-22 07:10 | 50.65772 | -142.76797 | 36001 ft | 472 kts | 289° |
| 2026-04-22 07:10 | 50.67576 | -142.84914 | 36004 ft | 472 kts | 289° |
| 2026-04-22 07:11 | 50.69738 | -142.94689 | 35999 ft | 472 kts | 289° |
| 2026-04-22 07:11 | 50.71838 | -143.04226 | 36000 ft | 472 kts | 289° |
| 2026-04-22 07:12 | 50.73983 | -143.14016 | 36004 ft | 472 kts | 289° |
| 2026-04-22 07:12 | 50.76121 | -143.23818 | 36002 ft | 472 kts | 289° |
| 2026-04-22 07:13 | 50.78250 | -143.33625 | 36003 ft | 472 kts | 289° |
| 2026-04-22 07:13 | 50.80372 | -143.43446 | 35999 ft | 472 kts | 289° |
| 2026-04-22 07:14 | 50.82471 | -143.53211 | 36001 ft | 472 kts | 289° |
| 2026-04-22 07:14 | 50.84575 | -143.63040 | 36004 ft | 472 kts | 288° |
| 2026-04-22 07:15 | 50.86670 | -143.72882 | 36002 ft | 472 kts | 288° |
| 2026-04-22 07:15 | 50.88761 | -143.82747 | 36002 ft | 472 kts | 288° |
| 2026-04-22 07:16 | 50.90840 | -143.92607 | 36002 ft | 472 kts | 288° |
| 2026-04-22 07:16 | 50.92862 | -144.02242 | 36002 ft | 472 kts | 288° |
| 2026-04-22 07:17 | 50.94927 | -144.12126 | 36004 ft | 472 kts | 288° |
| 2026-04-22 07:17 | 50.96983 | -144.22019 | 35999 ft | 472 kts | 288° |
| 2026-04-22 07:18 | 50.99028 | -144.31911 | 36004 ft | 472 kts | 288° |
| 2026-04-22 07:18 | 51.01047 | -144.41721 | 36000 ft | 472 kts | 288° |
| 2026-04-22 07:19 | 51.03074 | -144.51624 | 35999 ft | 472 kts | 288° |
| 2026-04-22 07:19 | 51.05095 | -144.61544 | 35999 ft | 472 kts | 288° |
| 2026-04-22 07:20 | 51.07108 | -144.71474 | 36003 ft | 472 kts | 288° |
| 2026-04-22 07:20 | 51.09111 | -144.81403 | 36003 ft | 472 kts | 288° |
| 2026-04-22 07:21 | 51.11106 | -144.91346 | 36000 ft | 472 kts | 287° |
| 2026-04-22 07:21 | 51.13048 | -145.01072 | 36001 ft | 472 kts | 287° |
| 2026-04-22 07:22 | 51.15025 | -145.11029 | 36003 ft | 472 kts | 287° |
| 2026-04-22 07:22 | 51.16998 | -145.21008 | 36003 ft | 472 kts | 287° |
| 2026-04-22 07:23 | 51.18959 | -145.30983 | 36002 ft | 472 kts | 287° |
| 2026-04-22 07:23 | 51.20911 | -145.40965 | 36003 ft | 472 kts | 287° |
| 2026-04-22 07:24 | 51.22856 | -145.50960 | 36002 ft | 472 kts | 287° |
| 2026-04-22 07:24 | 51.24780 | -145.60901 | 36001 ft | 472 kts | 287° |
| 2026-04-22 07:25 | 51.26707 | -145.70909 | 36000 ft | 472 kts | 287° |
| 2026-04-22 07:25 | 51.28624 | -145.80922 | 35999 ft | 472 kts | 287° |
| 2026-04-22 07:26 | 51.30536 | -145.90956 | 36003 ft | 472 kts | 287° |
| 2026-04-22 07:26 | 51.32395 | -146.00767 | 35999 ft | 472 kts | 287° |
| 2026-04-22 07:27 | 51.34290 | -146.10817 | 35999 ft | 472 kts | 287° |
| 2026-04-22 07:27 | 51.36174 | -146.20866 | 36003 ft | 472 kts | 287° |
| 2026-04-22 07:28 | 51.38985 | -146.35958 | 36001 ft | 472 kts | 286° |
| 2026-04-22 07:28 | 51.40849 | -146.46032 | 36002 ft | 472 kts | 286° |
| 2026-04-22 07:29 | 51.42691 | -146.56049 | 36002 ft | 472 kts | 286° |
| 2026-04-22 07:29 | 51.44537 | -146.66138 | 35999 ft | 472 kts | 286° |
| 2026-04-22 07:30 | 51.46372 | -146.76219 | 36003 ft | 472 kts | 286° |
| 2026-04-22 07:30 | 51.48202 | -146.86330 | 35999 ft | 472 kts | 286° |
| 2026-04-22 07:31 | 51.50022 | -146.96445 | 36003 ft | 472 kts | 286° |
| 2026-04-22 07:31 | 51.51789 | -147.06315 | 36002 ft | 472 kts | 286° |
| 2026-04-22 07:32 | 51.53590 | -147.16437 | 36003 ft | 472 kts | 286° |
| 2026-04-22 07:32 | 51.55384 | -147.26573 | 35998 ft | 472 kts | 285° |
| 2026-04-22 07:33 | 51.57170 | -147.36721 | 36002 ft | 472 kts | 285° |
| 2026-04-22 07:33 | 51.58945 | -147.46868 | 36003 ft | 472 kts | 285° |
| 2026-04-22 07:34 | 51.60701 | -147.56963 | 36001 ft | 471 kts | 285° |
| 2026-04-22 07:34 | 51.62459 | -147.67124 | 36001 ft | 471 kts | 285° |
| 2026-04-22 07:35 | 51.64209 | -147.77297 | 36002 ft | 471 kts | 285° |
| 2026-04-22 07:35 | 51.65948 | -147.87468 | 36003 ft | 471 kts | 285° |
| 2026-04-22 07:36 | 51.67680 | -147.97655 | 36003 ft | 471 kts | 285° |
| 2026-04-22 07:36 | 51.69362 | -148.07605 | 36001 ft | 471 kts | 285° |
| 2026-04-22 07:37 | 51.71075 | -148.17799 | 35999 ft | 471 kts | 285° |
| 2026-04-22 07:37 | 51.72781 | -148.28016 | 36001 ft | 471 kts | 285° |
| 2026-04-22 07:38 | 51.74477 | -148.38227 | 35998 ft | 471 kts | 285° |
| 2026-04-22 07:38 | 51.76163 | -148.48445 | 36002 ft | 471 kts | 285° |
| 2026-04-22 07:39 | 51.77831 | -148.58611 | 36002 ft | 471 kts | 284° |
| 2026-04-22 07:39 | 51.79503 | -148.68861 | 36002 ft | 471 kts | 284° |
| 2026-04-22 07:40 | 51.81163 | -148.79104 | 36001 ft | 471 kts | 284° |
| 2026-04-22 07:40 | 51.82815 | -148.89352 | 36010 ft | 473 kts | 284° |
| 2026-04-22 07:41 | 51.83640 | -148.94499 | 36113 ft | 475 kts | 284° |
| 2026-04-22 07:41 | 51.84468 | -148.99682 | 36367 ft | 474 kts | 284° |
| 2026-04-22 07:41 | 51.85248 | -149.04571 | 36628 ft | 473 kts | 284° |
| 2026-04-22 07:41 | 51.86066 | -149.09722 | 36865 ft | 473 kts | 284° |
| 2026-04-22 07:42 | 51.86884 | -149.14881 | 37069 ft | 473 kts | 284° |
| 2026-04-22 07:42 | 51.87698 | -149.20041 | 37268 ft | 474 kts | 284° |
| 2026-04-22 07:42 | 51.88511 | -149.25204 | 37476 ft | 474 kts | 284° |
| 2026-04-22 07:42 | 51.89323 | -149.30377 | 37678 ft | 473 kts | 284° |
| 2026-04-22 07:43 | 51.90131 | -149.35542 | 37860 ft | 474 kts | 284° |
| 2026-04-22 07:43 | 51.90940 | -149.40733 | 37927 ft | 476 kts | 284° |
| 2026-04-22 07:43 | 51.92557 | -149.51148 | 37997 ft | 477 kts | 284° |
| 2026-04-22 07:44 | 51.94157 | -149.61528 | 37994 ft | 473 kts | 284° |
| 2026-04-22 07:44 | 51.95740 | -149.71859 | 37997 ft | 471 kts | 284° |
| 2026-04-22 07:45 | 51.97305 | -149.82138 | 38001 ft | 469 kts | 284° |
| 2026-04-22 07:45 | 51.98861 | -149.92417 | 38002 ft | 469 kts | 283° |
| 2026-04-22 07:46 | 52.00363 | -150.02423 | 38003 ft | 470 kts | 283° |
| 2026-04-22 07:46 | 52.01863 | -150.12765 | 38004 ft | 471 kts | 283° |
| 2026-04-22 07:47 | 52.03335 | -150.23081 | 38003 ft | 473 kts | 283° |
| 2026-04-22 07:47 | 52.04814 | -150.33498 | 38002 ft | 474 kts | 283° |
| 2026-04-22 07:48 | 52.06293 | -150.43951 | 38002 ft | 475 kts | 283° |
| 2026-04-22 07:48 | 52.07766 | -150.54422 | 38001 ft | 476 kts | 283° |
| 2026-04-22 07:49 | 52.09231 | -150.64907 | 38001 ft | 476 kts | 283° |
| 2026-04-22 07:49 | 52.10686 | -150.75401 | 38001 ft | 475 kts | 282° |
| 2026-04-22 07:50 | 52.12130 | -150.85882 | 38001 ft | 475 kts | 282° |
| 2026-04-22 07:50 | 52.13566 | -150.96383 | 38000 ft | 475 kts | 282° |
| 2026-04-22 07:51 | 52.14957 | -151.06629 | 38001 ft | 474 kts | 282° |
| 2026-04-22 07:51 | 52.16370 | -151.17112 | 38001 ft | 474 kts | 282° |
| 2026-04-22 07:52 | 52.17772 | -151.27589 | 38001 ft | 473 kts | 282° |
| 2026-04-22 07:52 | 52.19166 | -151.38080 | 38001 ft | 473 kts | 282° |
| 2026-04-22 07:53 | 52.20539 | -151.48491 | 38001 ft | 473 kts | 282° |
| 2026-04-22 07:53 | 52.21912 | -151.58973 | 38001 ft | 473 kts | 282° |
| 2026-04-22 07:54 | 52.23277 | -151.69478 | 38002 ft | 473 kts | 282° |
| 2026-04-22 07:54 | 52.24631 | -151.79971 | 38002 ft | 473 kts | 282° |
| 2026-04-22 07:55 | 52.25977 | -151.90485 | 38002 ft | 473 kts | 282° |
| 2026-04-22 07:55 | 52.27283 | -152.00757 | 38002 ft | 473 kts | 282° |
| 2026-04-22 07:56 | 52.28611 | -152.11289 | 38001 ft | 473 kts | 281° |
| 2026-04-22 07:56 | 52.29930 | -152.21828 | 38001 ft | 474 kts | 281° |
| 2026-04-22 07:57 | 52.31241 | -152.32380 | 38001 ft | 474 kts | 281° |
| 2026-04-22 07:57 | 52.32541 | -152.42933 | 38001 ft | 474 kts | 281° |
| 2026-04-22 07:58 | 52.33832 | -152.53492 | 38001 ft | 474 kts | 281° |
| 2026-04-22 07:58 | 52.35115 | -152.64066 | 38001 ft | 474 kts | 281° |
| 2026-04-22 07:59 | 52.36389 | -152.74647 | 38001 ft | 474 kts | 281° |
| 2026-04-22 07:59 | 52.37644 | -152.85166 | 38001 ft | 474 kts | 281° |
| 2026-04-22 08:00 | 52.38898 | -152.95751 | 38001 ft | 474 kts | 281° |
| 2026-04-22 08:00 | 52.40115 | -153.06113 | 38001 ft | 474 kts | 281° |
| 2026-04-22 08:01 | 52.41351 | -153.16713 | 38001 ft | 474 kts | 281° |
| 2026-04-22 08:01 | 52.42576 | -153.27314 | 38001 ft | 474 kts | 281° |
| 2026-04-22 08:02 | 52.43595 | -153.36200 | 38001 ft | 474 kts | 281° |
| 2026-04-22 08:02 | 52.44802 | -153.46807 | 38001 ft | 474 kts | 280° |
| 2026-04-22 08:03 | 52.45993 | -153.57356 | 38001 ft | 474 kts | 280° |
| 2026-04-22 08:03 | 52.47182 | -153.67980 | 38001 ft | 474 kts | 280° |
| 2026-04-22 08:04 | 52.48361 | -153.78607 | 38001 ft | 474 kts | 280° |
| 2026-04-22 08:04 | 52.49531 | -153.89241 | 38001 ft | 474 kts | 280° |
| 2026-04-22 08:05 | 52.50690 | -153.99873 | 38001 ft | 474 kts | 280° |
| 2026-04-22 08:05 | 52.51815 | -154.10277 | 38001 ft | 474 kts | 280° |
| 2026-04-22 08:06 | 52.52955 | -154.20921 | 38002 ft | 474 kts | 280° |
| 2026-04-22 08:06 | 52.54088 | -154.31586 | 38001 ft | 474 kts | 279° |
| 2026-04-22 08:07 | 52.55209 | -154.42242 | 38001 ft | 474 kts | 279° |
| 2026-04-22 08:07 | 52.56321 | -154.52905 | 38001 ft | 474 kts | 279° |
| 2026-04-22 08:08 | 52.57424 | -154.63575 | 38001 ft | 474 kts | 279° |
| 2026-04-22 08:08 | 52.58518 | -154.74255 | 38001 ft | 474 kts | 279° |
| 2026-04-22 08:09 | 52.59602 | -154.84941 | 38001 ft | 474 kts | 279° |
| 2026-04-22 08:09 | 52.60676 | -154.95631 | 38001 ft | 474 kts | 279° |
| 2026-04-22 08:10 | 52.61717 | -155.06083 | 38001 ft | 474 kts | 279° |
| 2026-04-22 08:10 | 52.62772 | -155.16784 | 38001 ft | 474 kts | 279° |
| 2026-04-22 08:11 | 52.63810 | -155.27412 | 38001 ft | 474 kts | 279° |